Time;durP1;ratioP1;P1;durP2;ratioP2;P2;SDS_P1;SDS_P2;PMS_P1;PMS_P2;Temp;Humidity;BMP_temperature;BMP_pressure;BME280_temperature;BME280_humidity;BME280_pressure;Samples;Min_cycle;Max_cycle;Signal;HPM_P1;HPM_P2
2023/01/13 00:02:23;;;;;;;;;;;;;;;11.31;72.49;100330.03;4996388;28;20024;-79
2023/01/13 00:04:49;;;;;;;;;;;;;;;11.32;72.36;100328.16;4996811;28;19932;-80
2023/01/13 00:07:14;;;;;;;;;;;;;;;11.30;72.20;100325.69;4997348;28;20012;-79
2023/01/13 00:09:39;;;;;;;;;;;;;;;11.30;72.16;100314.09;4996151;28;19918;-80
2023/01/13 00:12:05;;;;;;;;;;;;;;;11.29;72.17;100302.47;4997140;28;19969;-80
2023/01/13 00:14:33;;;;;;;;;;;;;;;11.27;72.14;100297.28;5015441;28;20397;-80
2023/01/13 00:16:59;;;;;;;;;;;;;;;11.26;72.36;100290.28;5002429;28;19921;-75
2023/01/13 00:19:24;;;;;;;;;;;;;;;11.27;72.23;100282.97;5017968;28;19928;-80
2023/01/13 00:21:49;;;;;;;;;;;;;;;11.25;72.20;100295.91;4996484;28;19926;-80
2023/01/13 00:24:14;;;;;;;;;;;;;;;11.23;72.25;100290.75;4996167;28;20417;-79
2023/01/13 00:26:40;;;;;;;;;;;;;;;11.22;72.18;100291.84;4997225;28;19932;-80
2023/01/13 00:29:05;;;;;;;;;;;;;;;11.21;72.01;100279.41;5009748;28;19926;-80
2023/01/13 00:31:30;;;;;;;;;;;;;;;11.21;72.21;100275.88;5003163;28;19929;-82
2023/01/13 00:33:56;;;;;;;;;;;;;;;11.21;72.16;100273.16;5015044;28;19929;-80
2023/01/13 00:36:22;;;;;;;;;;;;;;;11.19;72.34;100278.84;5014416;28;19921;-75
2023/01/13 00:38:47;;;;;;;;;;;;;;;11.18;72.13;100281.81;4999271;28;20016;-79
2023/01/13 00:41:14;;;;;;;;;;;;;;;11.17;72.15;100272.88;5015031;28;20277;-80
2023/01/13 00:43:39;;;;;;;;;;;;;;;11.17;72.18;100272.06;5005358;28;19976;-79
2023/01/13 00:46:05;;;;;;;;;;;;;;;11.16;72.08;100281.25;5015626;28;19922;-79
2023/01/13 00:48:31;;;;;;;;;;;;;;;11.14;72.05;100284.22;5005395;28;19922;-78
2023/01/13 00:50:57;;;;;;;;;;;;;;;11.13;72.20;100282.56;5014778;28;19932;-80
2023/01/13 00:53:23;;;;;;;;;;;;;;;11.12;72.12;100275.53;5010904;28;19921;-77
2023/01/13 00:55:48;;;;;;;;;;;;;;;11.11;72.16;100287.41;4994703;28;19944;-81
2023/01/13 00:58:14;;;;;;;;;;;;;;;11.11;72.16;100281.19;4995708;28;19925;-81
2023/01/13 01:00:40;;;;;;;;;;;;;;;11.08;71.91;100271.72;4995478;28;19926;-79
2023/01/13 01:03:07;;;;;;;;;;;;;;;11.09;72.03;100286.88;4995159;28;20337;-80
2023/01/13 01:05:33;;;;;;;;;;;;;;;11.07;72.01;100275.50;5003819;28;19927;-82
2023/01/13 01:07:58;;;;;;;;;;;;;;;11.05;71.92;100280.34;5014545;28;20004;-82
2023/01/13 01:10:23;;;;;;;;;;;;;;;11.04;72.09;100281.44;5014531;28;20008;-81
2023/01/13 01:12:49;;;;;;;;;;;;;;;11.03;71.91;100277.88;5014028;28;19979;-80
2023/01/13 01:15:15;;;;;;;;;;;;;;;11.03;71.94;100274.38;5011771;28;19933;-80
2023/01/13 01:17:40;;;;;;;;;;;;;;;11.02;72.01;100270.06;5014041;28;19921;-81
2023/01/13 01:20:06;;;;;;;;;;;;;;;11.01;71.82;100260.28;5013780;28;19921;-81
2023/01/13 01:22:31;;;;;;;;;;;;;;;11.00;71.87;100266.78;5014221;28;19921;-79
2023/01/13 01:24:57;;;;;;;;;;;;;;;10.97;71.77;100268.13;5004373;28;19926;-80
2023/01/13 01:27:22;;;;;;;;;;;;;;;10.97;71.82;100270.00;5006376;28;20392;-81
2023/01/13 01:29:47;;;;;;;;;;;;;;;10.96;71.69;100268.34;5013845;28;19985;-81
2023/01/13 01:32:12;;;;;;;;;;;;;;;10.94;71.77;100274.03;5014152;28;19918;-80
2023/01/13 01:34:38;;;;;;;;;;;;;;;10.93;71.86;100268.88;5026983;28;20392;-82
2023/01/13 01:37:03;;;;;;;;;;;;;;;10.91;71.99;100279.97;5012233;28;20297;-80
2023/01/13 01:39:28;;;;;;;;;;;;;;;10.90;71.83;100274.81;5013513;28;19918;-76
2023/01/13 01:44:41;;;;;;;;;;;;;;;10.88;71.92;100282.34;5012652;28;19928;-79
2023/01/13 01:47:07;;;;;;;;;;;;;;;10.87;71.94;100276.13;5001287;28;20016;-80
2023/01/13 01:49:34;;;;;;;;;;;;;;;10.86;71.97;100285.31;5012163;28;19944;-81
2023/01/13 01:51:59;;;;;;;;;;;;;;;10.86;71.50;100279.06;5013177;28;19928;-81
2023/01/13 01:54:27;;;;;;;;;;;;;;;10.83;71.79;100278.53;5013730;28;20012;-81
2023/01/13 01:56:52;;;;;;;;;;;;;;;10.83;71.68;100283.94;5004136;28;19921;-82
2023/01/13 01:59:19;;;;;;;;;;;;;;;10.83;71.62;100285.81;4994619;28;20431;-82
2023/01/13 02:01:44;;;;;;;;;;;;;;;10.81;71.56;100286.09;4993630;28;19917;-81
2023/01/13 02:04:15;;;;;;;;;;;;;;;10.80;71.60;100279.03;4994661;28;20441;-82
2023/01/13 02:06:41;;;;;;;;;;;;;;;10.79;71.56;100282.00;4995918;28;19999;-82
2023/01/13 02:09:07;;;;;;;;;;;;;;;10.78;71.55;100285.75;5012879;28;19921;-79
2023/01/13 02:14:21;;;;;;;;;;;;;;;10.76;71.71;100296.84;5013340;28;19968;-80
2023/01/13 02:16:55;;;;;;;;;;;;;;;10.74;71.63;100295.47;5001162;28;20438;-80
2023/01/13 02:19:35;;;;;;;;;;;;;;;10.74;71.71;100292.75;5013241;28;19921;-81
2023/01/13 02:22:14;;;;;;;;;;;;;;;10.73;71.51;100302.72;5013090;28;20012;-82
2023/01/13 02:24:54;;;;;;;;;;;;;;;10.72;71.57;100300.28;5012832;28;19918;-81
2023/01/13 02:27:35;;;;;;;;;;;;;;;10.70;71.33;100292.44;5009631;28;20364;-81
2023/01/13 02:33:05;;;;;;;;;;;;;;;10.68;71.60;100297.28;5005195;28;19932;-80
2023/01/13 02:35:30;;;;;;;;;;;;;;;10.67;71.63;100292.94;4994126;28;19922;-80
2023/01/13 02:37:57;;;;;;;;;;;;;;;10.66;71.43;100274.28;4995688;28;19964;-80
2023/01/13 02:40:24;;;;;;;;;;;;;;;10.65;71.60;100283.47;4997392;28;19928;-82
2023/01/13 02:45:49;;;;;;;;;;;;;;;10.63;71.56;100267.50;4993205;28;19928;-81
2023/01/13 02:48:16;;;;;;;;;;;;;;;10.61;71.58;100262.38;4998303;28;19925;-81
2023/01/13 02:50:45;;;;;;;;;;;;;;;10.61;71.51;100258.88;5010968;28;20443;-79
2023/01/13 02:53:13;;;;;;;;;;;;;;;10.60;71.45;100249.13;5012815;28;20373;-82
2023/01/13 02:55:42;;;;;;;;;;;;;;;10.59;71.66;100255.59;5011580;28;19940;-80
2023/01/13 02:58:08;;;;;;;;;;;;;;;10.57;71.38;100257.75;4998112;28;19968;-80
2023/01/13 03:00:35;;;;;;;;;;;;;;;10.56;71.49;100253.41;5012790;28;19917;-82
2023/01/13 03:03:01;;;;;;;;;;;;;;;10.55;71.36;100254.47;5012299;28;19917;-82
2023/01/13 03:05:26;;;;;;;;;;;;;;;10.56;71.40;100248.00;5012640;28;20354;-81
2023/01/13 03:07:57;;;;;;;;;;;;;;;10.54;71.28;100242.06;5009078;28;19926;-81
2023/01/13 03:10:48;;;;;;;;;;;;;;;10.52;71.40;100260.38;5012397;28;19987;-81
2023/01/13 03:13:40;;;;;;;;;;;;;;;10.51;71.40;100256.06;5012406;28;20473;-81
2023/01/13 03:16:24;;;;;;;;;;;;;;;10.49;71.39;100240.09;5010486;28;20377;-81
2023/01/13 03:18:54;;;;;;;;;;;;;;;10.48;71.24;100237.66;5003865;28;19981;-82
2023/01/13 03:21:22;;;;;;;;;;;;;;;10.46;71.17;100243.31;4992859;28;19922;-80
2023/01/13 03:23:53;;;;;;;;;;;;;;;10.44;71.35;100237.34;4992483;28;19961;-82
2023/01/13 03:26:25;;;;;;;;;;;;;;;10.42;71.12;100244.06;4993024;28;20008;-82
2023/01/13 03:29:01;;;;;;;;;;;;;;;10.41;71.08;100237.88;4995693;28;19921;-81
2023/01/13 03:31:29;;;;;;;;;;;;;;;10.39;70.75;100235.41;5005550;28;20437;-82
2023/01/13 03:33:58;;;;;;;;;;;;;;;10.37;70.88;100228.63;5011904;28;19917;-81
2023/01/13 03:36:25;;;;;;;;;;;;;;;10.35;70.86;100234.28;5012298;28;19924;-82
2023/01/13 03:38:52;;;;;;;;;;;;;;;10.35;70.93;100246.97;5010069;28;19930;-83
2023/01/13 03:41:22;;;;;;;;;;;;;;;10.33;70.81;100236.44;5010035;28;19921;-82
2023/01/13 03:46:41;;;;;;;;;;;;;;;10.31;70.90;100240.47;5012095;28;19924;-82
2023/01/13 03:49:08;;;;;;;;;;;;;;;10.30;70.81;100228.00;5013427;28;20370;-82
2023/01/13 03:51:34;;;;;;;;;;;;;;;10.29;70.77;100234.50;5013653;28;19922;-83
2023/01/13 03:54:03;;;;;;;;;;;;;;;10.27;70.97;100240.09;5014432;28;20385;-82
2023/01/13 03:56:32;;;;;;;;;;;;;;;10.28;70.70;100251.75;5012658;28;19917;-81
2023/01/13 03:59:01;;;;;;;;;;;;;;;10.27;71.14;100250.91;5027211;28;19968;-82
2023/01/13 04:01:41;;;;;;;;;;;;;;;10.25;70.91;100261.13;5009929;28;19921;-81
2023/01/13 04:04:09;;;;;;;;;;;;;;;10.25;70.61;100265.72;5011894;28;19959;-82
2023/01/13 04:06:56;;;;;;;;;;;;;;;10.23;70.93;100260.59;5011734;28;19917;-81
2023/01/13 04:09:28;;;;;;;;;;;;;;;10.22;70.86;100272.44;5010482;28;20382;-82
2023/01/13 04:12:19;;;;;;;;;;;;;;;10.22;70.79;100285.13;4996162;28;19922;-81
2023/01/13 04:14:45;;;;;;;;;;;;;;;10.22;70.92;100285.13;4996611;28;19918;-77
2023/01/13 04:17:10;;;;;;;;;;;;;;;10.21;70.97;100288.91;5010938;28;19972;-81
2023/01/13 04:19:36;;;;;;;;;;;;;;;10.19;70.75;100276.44;5012112;28;19921;-81
2023/01/13 04:22:01;;;;;;;;;;;;;;;10.19;70.77;100289.13;5002693;28;19922;-81
2023/01/13 04:24:26;;;;;;;;;;;;;;;10.19;70.84;100294.53;5011727;28;20282;-81
2023/01/13 04:26:52;;;;;;;;;;;;;;;10.19;70.77;100291.84;5011327;28;20374;-83
2023/01/13 04:29:17;;;;;;;;;;;;;;;10.19;71.00;100297.22;5011598;28;20404;-82
2023/01/13 04:31:42;;;;;;;;;;;;;;;10.17;70.98;100291.25;5012418;28;19961;-82
2023/01/13 04:34:09;;;;;;;;;;;;;;;10.16;71.01;100287.75;5006887;28;20013;-82
2023/01/13 04:36:34;;;;;;;;;;;;;;;10.16;70.96;100286.94;5015372;28;20340;-81
2023/01/13 04:39:00;;;;;;;;;;;;;;;10.15;70.87;100286.13;5010037;28;20493;-82
2023/01/13 04:41:25;;;;;;;;;;;;;;;10.13;70.74;100282.88;5011564;28;19925;-83
2023/01/13 04:43:50;;;;;;;;;;;;;;;10.13;70.99;100288.25;5013848;28;19925;-81
2023/01/13 04:46:15;;;;;;;;;;;;;;;10.12;71.13;100281.22;5014952;28;19922;-81
2023/01/13 04:48:40;;;;;;;;;;;;;;;10.11;71.13;100279.59;5015209;28;19926;-81
2023/01/13 04:51:06;;;;;;;;;;;;;;;10.12;71.06;100280.41;5011089;28;19968;-82
2023/01/13 04:53:31;;;;;;;;;;;;;;;10.11;71.15;100286.88;5013307;28;20289;-79
2023/01/13 04:55:56;;;;;;;;;;;;;;;10.09;71.06;100273.63;5013903;28;19979;-82
2023/01/13 04:58:21;;;;;;;;;;;;;;;10.10;71.25;100277.13;5005729;28;20425;-82
2023/01/13 05:00:48;;;;;;;;;;;;;;;10.09;71.23;100281.72;5007750;28;19963;-82
2023/01/13 05:03:14;;;;;;;;;;;;;;;10.09;71.22;100276.31;5013615;28;20366;-82
2023/01/13 05:05:39;;;;;;;;;;;;;;;10.09;71.17;100262.03;5015342;28;19931;-82
2023/01/13 05:08:04;;;;;;;;;;;;;;;10.09;71.25;100278.22;5013737;28;20374;-83
2023/01/13 05:10:30;;;;;;;;;;;;;;;10.08;71.18;100276.56;5013375;28;19929;-79
2023/01/13 05:18:23;;;;;;;;;;;;;;;10.06;71.20;100276.84;5014573;28;19924;-81
2023/01/13 05:20:49;;;;;;;;;;;;;;;10.05;71.23;100275.19;5009720;28;19926;-78
2023/01/13 05:25:58;;;;;;;;;;;;;;;10.03;71.05;100290.84;4998404;28;19933;-81
2023/01/13 05:28:23;;;;;;;;;;;;;;;10.03;71.13;100282.75;5000487;28;20370;-82
2023/01/13 05:30:49;;;;;;;;;;;;;;;10.03;71.14;100292.69;4995784;28;19928;-83
2023/01/13 05:33:16;;;;;;;;;;;;;;;10.01;70.89;100287.56;4994928;28;19925;-82
2023/01/13 05:35:42;;;;;;;;;;;;;;;10.01;71.03;100289.44;5002681;28;19921;-78
2023/01/13 05:38:08;;;;;;;;;;;;;;;10.00;71.14;100295.91;5011408;28;20004;-81
2023/01/13 05:43:18;;;;;;;;;;;;;;;9.99;70.96;100294.28;5013272;28;19924;-83
2023/01/13 05:45:45;;;;;;;;;;;;;;;9.98;70.91;100306.97;5012278;28;20007;-83
2023/01/13 05:48:10;;;;;;;;;;;;;;;9.97;70.97;100302.59;5007648;28;20325;-83
2023/01/13 05:50:35;;;;;;;;;;;;;;;9.95;71.09;100300.19;5013569;28;19925;-83
2023/01/13 05:53:00;;;;;;;;;;;;;;;9.95;70.77;100302.03;5014149;28;19968;-84
2023/01/13 05:55:26;;;;;;;;;;;;;;;9.93;71.08;100307.69;5013288;28;19921;-84
2023/01/13 05:57:51;;;;;;;;;;;;;;;9.94;70.93;100308.50;5012785;28;20413;-80
2023/01/13 06:00:17;;;;;;;;;;;;;;;9.93;71.12;100312.28;5027349;28;19925;-82
2023/01/13 06:02:42;;;;;;;;;;;;;;;9.92;70.91;100307.94;5008995;28;20289;-82
2023/01/13 06:05:08;;;;;;;;;;;;;;;9.90;71.08;100313.59;5013268;28;19968;-81
2023/01/13 06:07:33;;;;;;;;;;;;;;;9.91;70.95;100326.00;5013768;28;19978;-84
2023/01/13 06:09:58;;;;;;;;;;;;;;;9.89;70.92;100317.34;5013856;28;19963;-81
2023/01/13 06:12:23;;;;;;;;;;;;;;;9.89;71.25;100317.34;5004945;28;20294;-81
2023/01/13 06:14:49;;;;;;;;;;;;;;;9.89;70.98;100316.53;4997921;28;20015;-83
2023/01/13 06:17:14;;;;;;;;;;;;;;;9.88;71.03;100315.72;5012796;28;19936;-83
2023/01/13 06:19:40;;;;;;;;;;;;;;;9.87;71.11;100313.25;5028736;28;20241;-82
2023/01/13 06:22:16;;;;;;;;;;;;;;;9.86;70.98;100328.63;5007979;28;19926;-84
2023/01/13 06:24:41;;;;;;;;;;;;;;;9.85;71.27;100335.09;5019960;28;19949;-82
2023/01/13 06:27:07;;;;;;;;;;;;;;;9.84;70.99;100346.94;5012827;28;20011;-80
2023/01/13 06:29:33;;;;;;;;;;;;;;;9.84;71.14;100355.03;5012851;28;19918;-82
2023/01/13 06:32:00;;;;;;;;;;;;;;;9.82;70.91;100349.06;5012039;28;19929;-74
2023/01/13 06:34:26;;;;;;;;;;;;;;;9.82;70.97;100337.47;5011150;28;19928;-85
2023/01/13 06:36:52;;;;;;;;;;;;;;;9.81;70.96;100342.06;5013113;28;19921;-81
2023/01/13 06:39:19;;;;;;;;;;;;;;;9.80;70.91;100332.31;5012646;28;20115;-84
2023/01/13 06:44:30;;;;;;;;;;;;;;;9.79;70.61;100335.28;4994677;28;20457;-83
2023/01/13 06:46:55;;;;;;;;;;;;;;;9.77;70.97;100326.59;5006861;28;20008;-82
2023/01/13 06:49:21;;;;;;;;;;;;;;;9.75;70.74;100335.78;5012215;28;20401;-83
2023/01/13 06:51:46;;;;;;;;;;;;;;;9.75;70.92;100343.88;5013028;28;19927;-82
2023/01/13 06:54:11;;;;;;;;;;;;;;;9.73;70.72;100346.00;5009254;28;19948;-83
2023/01/13 06:56:36;;;;;;;;;;;;;;;9.73;70.66;100335.19;5007374;28;19926;-82
2023/01/13 06:59:02;;;;;;;;;;;;;;;9.72;70.87;100340.81;4993375;28;19922;-81
2023/01/13 07:01:27;;;;;;;;;;;;;;;9.72;70.73;100338.13;4993785;28;19971;-83
2023/01/13 07:03:52;;;;;;;;;;;;;;;9.70;70.72;100343.78;4996465;28;19941;-82
2023/01/13 07:06:18;;;;;;;;;;;;;;;9.69;70.85;100335.94;5012232;28;19968;-83
2023/01/13 07:08:43;;;;;;;;;;;;;;;9.69;70.74;100333.22;5012863;28;19929;-82
2023/01/13 07:11:08;;;;;;;;;;;;;;;9.67;70.62;100346.94;5012962;28;19925;-84
2023/01/13 07:16:17;;;;;;;;;;;;;;;9.66;70.87;100355.31;5011235;28;19928;-84
2023/01/13 07:18:42;;;;;;;;;;;;;;;9.65;70.80;100354.50;5013050;28;19922;-83
2023/01/13 07:21:09;;;;;;;;;;;;;;;9.64;70.92;100360.13;5011048;28;19921;-79
2023/01/13 07:23:38;;;;;;;;;;;;;;;9.64;70.94;100349.34;5011640;28;19991;-83
2023/01/13 07:26:04;;;;;;;;;;;;;;;9.64;70.66;100347.44;5009345;28;19925;-77
2023/01/13 07:28:30;;;;;;;;;;;;;;;9.63;70.95;100339.63;5013389;28;20004;-83
2023/01/13 07:30:56;;;;;;;;;;;;;;;9.63;70.82;100334.22;5013308;28;19925;-83
2023/01/13 07:33:22;;;;;;;;;;;;;;;9.62;70.74;100338.78;5010550;28;19921;-79
2023/01/13 07:35:47;;;;;;;;;;;;;;;9.61;70.78;100331.78;5003489;28;19968;-80
2023/01/13 07:38:13;;;;;;;;;;;;;;;9.62;70.84;100348.75;5004865;28;19921;-83
2023/01/13 07:40:39;;;;;;;;;;;;;;;9.61;70.70;100342.56;5010297;28;19979;-83
2023/01/13 07:45:48;;;;;;;;;;;;;;;9.58;70.66;100348.44;5018067;28;19980;-79
2023/01/13 07:48:13;;;;;;;;;;;;;;;9.57;70.32;100352.19;5009523;28;19922;-83
2023/01/13 07:50:38;;;;;;;;;;;;;;;9.57;70.51;100364.88;5006501;28;19961;-79
2023/01/13 07:53:04;;;;;;;;;;;;;;;9.56;70.48;100371.31;4998657;28;19985;-83
2023/01/13 07:55:29;;;;;;;;;;;;;;;9.54;70.56;100375.06;5011734;28;20266;-82
2023/01/13 07:57:54;;;;;;;;;;;;;;;9.54;70.51;100387.75;4993231;28;19921;-82
2023/01/13 08:00:20;;;;;;;;;;;;;;;9.52;70.63;100382.59;4992434;28;20402;-84
2023/01/13 08:02:45;;;;;;;;;;;;;;;9.52;70.48;100388.00;4993963;28;19922;-83
2023/01/13 08:05:10;;;;;;;;;;;;;;;9.52;70.54;100392.56;5014560;28;19929;-84
2023/01/13 08:07:35;;;;;;;;;;;;;;;9.51;70.38;100390.94;5021466;28;19922;-82
2023/01/13 08:10:01;;;;;;;;;;;;;;;9.51;70.49;100396.31;5024845;28;19962;-81
2023/01/13 08:15:11;;;;;;;;;;;;;;;9.48;70.53;100394.94;5014658;28;20051;-83
2023/01/13 08:17:36;;;;;;;;;;;;;;;9.48;70.52;100402.22;5013642;28;20015;-81
2023/01/13 08:20:02;;;;;;;;;;;;;;;9.47;70.57;100404.06;5016387;28;19922;-83
2023/01/13 08:22:29;;;;;;;;;;;;;;;9.47;70.78;100401.38;5011832;28;19925;-84
2023/01/13 08:24:55;;;;;;;;;;;;;;;9.46;70.50;100399.75;5016223;28;19925;-82
2023/01/13 08:27:20;;;;;;;;;;;;;;;9.46;70.53;100402.44;5015257;28;19925;-82
2023/01/13 08:29:45;;;;;;;;;;;;;;;9.46;70.53;100409.72;5002196;28;20024;-83
2023/01/13 08:32:10;;;;;;;;;;;;;;;9.46;70.53;100407.03;5012305;28;19925;-82
2023/01/13 08:34:36;;;;;;;;;;;;;;;9.45;70.48;100398.13;5014813;28;19917;-84
2023/01/13 08:37:01;;;;;;;;;;;;;;;9.45;70.44;100405.38;5015152;28;19929;-84
2023/01/13 08:39:26;;;;;;;;;;;;;;;9.45;70.61;100402.69;5002993;28;19926;-81
2023/01/13 08:41:55;;;;;;;;;;;;;;;9.44;70.33;100406.44;5007852;28;19944;-82
2023/01/13 08:44:21;;;;;;;;;;;;;;;9.42;70.68;100405.88;5014269;28;20017;-83
2023/01/13 08:46:46;;;;;;;;;;;;;;;9.43;70.54;100404.81;5015420;28;19925;-82
2023/01/13 08:49:11;;;;;;;;;;;;;;;9.42;70.64;100406.66;5012672;28;19922;-78
2023/01/13 08:51:37;;;;;;;;;;;;;;;9.41;70.37;100407.75;5007132;28;19987;-81
2023/01/13 08:54:02;;;;;;;;;;;;;;;9.41;70.53;100396.16;4995811;28;19929;-83
2023/01/13 08:56:28;;;;;;;;;;;;;;;9.40;70.62;100403.44;4995378;28;20345;-82
2023/01/13 08:58:56;;;;;;;;;;;;;;;9.41;70.49;100423.91;5002699;28;19922;-84
2023/01/13 09:01:22;;;;;;;;;;;;;;;9.39;70.35;100417.94;5012697;28;20526;-84
2023/01/13 09:03:47;;;;;;;;;;;;;;;9.40;70.32;100419.59;5015112;28;20012;-82
2023/01/13 09:06:12;;;;;;;;;;;;;;;9.41;70.34;100423.09;5014446;28;19956;-77
2023/01/13 09:08:37;;;;;;;;;;;;;;;9.40;70.38;100422.31;5013367;28;20381;-83
2023/01/13 09:13:10;;;;;;;;;;;;;;;9.39;70.54;100414.44;5014785;28;19921;-83
2023/01/13 09:13:48;;;;;;;;;;;;;;;9.40;70.11;100425.00;5012069;28;19933;-85
2023/01/13 09:16:13;;;;;;;;;;;;;;;9.39;70.29;100427.91;5013391;28;19922;-77
2023/01/13 09:18:39;;;;;;;;;;;;;;;9.39;70.51;100425.22;5014393;28;19922;-83
2023/01/13 09:21:04;;;;;;;;;;;;;;;9.37;70.32;100420.06;5003745;28;20005;-83
2023/01/13 09:23:30;;;;;;;;;;;;;;;9.36;70.52;100431.91;5004859;28;19941;-83
2023/01/13 09:25:55;;;;;;;;;;;;;;;9.36;70.10;100436.50;5014451;28;20382;-84
2023/01/13 09:28:20;;;;;;;;;;;;;;;9.37;70.24;100435.44;5014015;28;20312;-84
2023/01/13 09:30:45;;;;;;;;;;;;;;;9.38;70.21;100456.75;5007045;28;19983;-83
2023/01/13 09:35:58;;;;;;;;;;;;;;;9.37;70.16;100455.09;5014323;28;19972;-84
2023/01/13 09:38:23;;;;;;;;;;;;;;;9.38;70.49;100461.34;5013021;28;19921;-84
2023/01/13 09:40:48;;;;;;;;;;;;;;;9.37;70.23;100462.38;5010704;28;19945;-83
2023/01/13 09:46:42;;;;;;;;;;;;;;;9.37;70.12;100465.06;5011770;28;19925;-82
2023/01/13 09:48:56;;;;;;;;;;;;;;;9.38;70.35;100474.81;5011498;28;19917;-81
2023/01/13 09:51:28;;;;;;;;;;;;;;;9.39;70.23;100474.56;5012016;28;19926;-83
2023/01/13 09:53:55;;;;;;;;;;;;;;;9.38;70.18;100470.25;5009213;28;19933;-83
2023/01/13 09:56:21;;;;;;;;;;;;;;;9.39;70.36;100490.72;5006658;28;19921;-80
2023/01/13 09:58:47;;;;;;;;;;;;;;;9.39;70.31;100489.91;5011568;28;19917;-84
2023/01/13 10:01:24;;;;;;;;;;;;;;;9.39;70.05;100481.84;5011142;28;19925;-81
2023/01/13 10:03:49;;;;;;;;;;;;;;;9.39;70.23;100501.50;4995150;28;19917;-82
2023/01/13 10:06:14;;;;;;;;;;;;;;;9.40;70.19;100505.03;4995071;28;19936;-84
2023/01/13 10:08:41;;;;;;;;;;;;;;;9.41;70.35;100509.38;5009714;28;20431;-81
2023/01/13 10:14:26;;;;;;;;;;;;;;;9.42;70.28;100517.19;5011356;28;19925;-82
2023/01/13 10:17:03;;;;;;;;;;;;;;;9.42;70.41;100522.59;5010843;28;20004;-84
2023/01/13 10:19:37;;;;;;;;;;;;;;;9.43;70.50;100535.03;5010726;28;20010;-83
2023/01/13 10:22:12;;;;;;;;;;;;;;;9.44;70.42;100543.94;5031276;28;19925;-79
2023/01/13 10:24:55;;;;;;;;;;;;;;;9.43;70.55;100526.94;4991298;28;19924;-82
2023/01/13 10:27:28;;;;;;;;;;;;;;;9.45;70.43;100542.88;4991715;28;19921;-80
2023/01/13 10:29:53;;;;;;;;;;;;;;;9.44;70.62;100533.97;4992176;28;19961;-81
2023/01/13 10:32:18;;;;;;;;;;;;;;;9.44;70.72;100535.84;4992351;28;20440;-82
2023/01/13 10:34:50;;;;;;;;;;;;;;;9.44;70.41;100541.25;4991290;28;19918;-82
2023/01/13 10:37:23;;;;;;;;;;;;;;;9.45;70.52;100553.66;4992581;28;20383;-82
2023/01/13 10:39:52;;;;;;;;;;;;;;;9.45;70.52;100559.03;4991788;28;19988;-83
2023/01/13 10:42:20;;;;;;;;;;;;;;;9.45;70.77;100553.66;4991898;28;19922;-82
2023/01/13 10:44:47;;;;;;;;;;;;;;;9.46;70.50;100544.53;4996235;28;19956;-84
2023/01/13 10:47:21;;;;;;;;;;;;;;;9.46;70.68;100544.53;5003585;28;19929;-82
2023/01/13 10:49:57;;;;;;;;;;;;;;;9.46;70.64;100555.31;5007751;28;20370;-79
2023/01/13 10:52:27;;;;;;;;;;;;;;;9.46;70.77;100539.94;5003210;28;20358;-84
2023/01/13 10:54:53;;;;;;;;;;;;;;;9.46;70.46;100541.81;4996223;28;19921;-84
2023/01/13 10:57:22;;;;;;;;;;;;;;;9.47;70.43;100536.16;4993471;28;19921;-83
2023/01/13 10:59:47;;;;;;;;;;;;;;;9.47;70.33;100546.16;4993830;28;20055;-83
2023/01/13 11:02:19;;;;;;;;;;;;;;;9.47;70.51;100549.66;4994380;28;20004;-83
2023/01/13 11:04:58;;;;;;;;;;;;;;;9.48;70.81;100547.81;4993520;28;20357;-84
2023/01/13 11:07:28;;;;;;;;;;;;;;;9.48;70.36;100553.19;4993338;28;19925;-82
2023/01/13 11:10:20;;;;;;;;;;;;;;;9.48;70.84;100558.59;4993512;28;19913;-82
2023/01/13 11:12:49;;;;;;;;;;;;;;;9.46;70.68;100566.09;4995157;28;20365;-83
2023/01/13 11:15:17;;;;;;;;;;;;;;;9.47;70.85;100571.22;5007785;28;19953;-83
2023/01/13 11:17:59;;;;;;;;;;;;;;;9.47;70.85;100573.91;5012226;28;20372;-82
2023/01/13 11:20:31;;;;;;;;;;;;;;;9.47;70.83;100565.84;5012938;28;19913;-83
2023/01/13 11:22:58;;;;;;;;;;;;;;;9.48;70.81;100572.06;4994807;28;20290;-84
2023/01/13 11:25:32;;;;;;;;;;;;;;;9.47;70.89;100573.91;4993216;28;20346;-80
2023/01/13 11:28:18;;;;;;;;;;;;;;;9.48;70.76;100582.84;4993490;28;20416;-85
2023/01/13 11:31:03;;;;;;;;;;;;;;;9.49;70.81;100587.16;4993221;28;20334;-85
2023/01/13 11:33:38;;;;;;;;;;;;;;;9.50;70.92;100586.94;4993102;28;19913;-82
2023/01/13 11:36:07;;;;;;;;;;;;;;;9.50;70.74;100581.56;5012613;28;20428;-82
2023/01/13 11:38:35;;;;;;;;;;;;;;;9.50;70.70;100583.44;5011572;28;19939;-82
2023/01/13 11:41:05;;;;;;;;;;;;;;;9.50;70.74;100589.63;5011793;28;19967;-83
2023/01/13 11:43:49;;;;;;;;;;;;;;;9.49;70.67;100590.69;5012271;28;19936;-83
2023/01/13 11:46:14;;;;;;;;;;;;;;;9.48;70.66;100591.75;4998907;28;20374;-84
2023/01/13 11:48:41;;;;;;;;;;;;;;;9.49;70.81;100597.97;5012469;28;19917;-84
2023/01/13 11:51:12;;;;;;;;;;;;;;;9.49;70.73;100597.97;5013106;28;19914;-83
2023/01/13 11:53:40;;;;;;;;;;;;;;;9.51;70.90;100598.53;5017109;28;19968;-81
2023/01/13 11:56:26;;;;;;;;;;;;;;;9.50;70.80;100600.44;5018163;28;19959;-84
2023/01/13 11:59:10;;;;;;;;;;;;;;;9.51;70.48;100587.75;5013061;28;19927;-80
2023/01/13 12:01:53;;;;;;;;;;;;;;;9.51;70.74;100606.63;5010820;28;20366;-81
2023/01/13 12:04:21;;;;;;;;;;;;;;;9.50;70.56;100591.53;5011769;28;19913;-81
2023/01/13 12:06:49;;;;;;;;;;;;;;;9.50;70.83;100603.13;5010008;28;19914;-78
2023/01/13 12:09:24;;;;;;;;;;;;;;;9.51;70.62;100617.41;5012465;28;19917;-85
2023/01/13 12:14:52;;;;;;;;;;;;;;;9.51;70.58;100617.41;5024957;28;19924;-79
2023/01/13 12:17:30;;;;;;;;;;;;;;;9.52;70.65;100624.44;5018749;28;19964;-81
2023/01/13 12:19:55;;;;;;;;;;;;;;;9.52;70.54;100640.63;5028624;28;20324;-83
2023/01/13 12:22:26;;;;;;;;;;;;;;;9.52;70.41;100619.03;5012425;28;19933;-82
2023/01/13 12:25:03;;;;;;;;;;;;;;;9.52;70.56;100619.88;5012206;28;19947;-81
2023/01/13 12:27:28;;;;;;;;;;;;;;;9.53;70.49;100635.00;5000190;28;20366;-83
2023/01/13 12:29:58;;;;;;;;;;;;;;;9.53;70.31;100621.50;5006109;28;19921;-84
2023/01/13 12:32:28;;;;;;;;;;;;;;;9.53;70.20;100629.59;5012508;28;19925;-83
2023/01/13 12:35:12;;;;;;;;;;;;;;;9.53;69.10;100632.28;5011291;28;19918;-88
2023/01/13 12:37:43;;;;;;;;;;;;;;;9.56;69.73;100635.59;5002299;28;19926;-83
2023/01/13 12:40:18;;;;;;;;;;;;;;;9.56;69.81;100643.66;5012168;28;19924;-83
2023/01/13 12:46:13;;;;;;;;;;;;;;;9.58;69.83;100645.06;4992141;28;19964;-83
2023/01/13 12:48:55;;;;;;;;;;;;;;;9.61;69.72;100665.34;5001726;28;19918;-84
2023/01/13 12:51:20;;;;;;;;;;;;;;;9.60;69.86;100656.44;4995835;28;19918;-82
2023/01/13 12:53:46;;;;;;;;;;;;;;;9.60;69.69;100659.16;5002829;28;19924;-83
2023/01/13 12:56:23;;;;;;;;;;;;;;;9.61;69.89;100651.88;4997454;28;19933;-82
2023/01/13 12:58:48;;;;;;;;;;;;;;;9.61;69.73;100670.75;5005437;28;19960;-81
2023/01/13 13:01:14;;;;;;;;;;;;;;;9.61;69.93;100655.38;5001032;28;19964;-82
2023/01/13 13:03:39;;;;;;;;;;;;;;;9.61;69.79;100673.44;5012862;28;19917;-84
2023/01/13 13:06:06;;;;;;;;;;;;;;;9.61;69.73;100671.56;5014421;28;19922;-84
2023/01/13 13:08:41;;;;;;;;;;;;;;;9.62;69.97;100685.84;5014007;28;20020;-82
2023/01/13 13:13:57;;;;;;;;;;;;;;;9.61;69.55;100678.84;4994229;28;19926;-82
2023/01/13 13:16:25;;;;;;;;;;;;;;;9.61;69.86;100685.03;4994280;28;20016;-83
2023/01/13 13:18:51;;;;;;;;;;;;;;;9.63;69.71;100693.72;4994083;28;19922;-82
2023/01/13 13:21:17;;;;;;;;;;;;;;;9.64;69.73;100702.63;4994141;28;19929;-84
2023/01/13 13:23:54;;;;;;;;;;;;;;;9.64;69.60;100706.13;4999453;28;19922;-85
2023/01/13 13:26:30;;;;;;;;;;;;;;;9.65;69.78;100705.09;5007410;28;19918;-84
2023/01/13 13:29:18;;;;;;;;;;;;;;;9.64;69.77;100708.84;4996776;28;19918;-82
2023/01/13 13:31:43;;;;;;;;;;;;;;;9.66;69.66;100708.59;4994146;28;19948;-82
2023/01/13 13:34:14;;;;;;;;;;;;;;;9.66;69.67;100714.00;4993575;28;20386;-81
2023/01/13 13:36:58;;;;;;;;;;;;;;;9.68;69.59;100711.91;4993481;28;19924;-82
2023/01/13 13:48:21;;;;;;;;;;;;;;;9.70;69.82;100732.19;5001222;28;20393;-82
2023/01/13 13:50:48;;;;;;;;;;;;;;;9.69;69.78;100743.19;4995846;28;19917;-82
2023/01/13 13:53:13;;;;;;;;;;;;;;;9.69;69.73;100729.69;4999979;28;19965;-80